sensor_id;sensor_type;location;lat;lon;timestamp;temperature;humidity
17632;DHT22;8934;51.194;17.150;2024-03-02T00:02:12;9.90;99.90
17632;DHT22;8934;51.194;17.150;2024-03-02T00:05:00;9.80;99.90
17632;DHT22;8934;51.194;17.150;2024-03-02T00:07:53;9.80;99.90
17632;DHT22;8934;51.194;17.150;2024-03-02T00:10:41;9.70;99.90
17632;DHT22;8934;51.194;17.150;2024-03-02T00:13:29;9.70;99.90
17632;DHT22;8934;51.194;17.150;2024-03-02T00:16:19;9.60;99.90
17632;DHT22;8934;51.194;17.150;2024-03-02T00:19:07;9.60;99.90
17632;DHT22;8934;51.194;17.150;2024-03-02T00:21:56;9.60;99.90
17632;DHT22;8934;51.194;17.150;2024-03-02T00:24:44;9.60;99.90
17632;DHT22;8934;51.194;17.150;2024-03-02T00:27:31;9.60;99.90
17632;DHT22;8934;51.194;17.150;2024-03-02T00:30:51;9.60;99.90
17632;DHT22;8934;51.194;17.150;2024-03-02T00:33:41;9.60;99.90
17632;DHT22;8934;51.194;17.150;2024-03-02T00:36:29;9.60;99.90
17632;DHT22;8934;51.194;17.150;2024-03-02T00:39:17;9.60;99.90
17632;DHT22;8934;51.194;17.150;2024-03-02T00:42:05;9.60;99.90
17632;DHT22;8934;51.194;17.150;2024-03-02T00:44:53;9.60;99.90
17632;DHT22;8934;51.194;17.150;2024-03-02T00:47:40;9.60;99.90
17632;DHT22;8934;51.194;17.150;2024-03-02T00:50:29;9.60;99.90
17632;DHT22;8934;51.194;17.150;2024-03-02T00:53:22;9.60;99.90
17632;DHT22;8934;51.194;17.150;2024-03-02T00:56:11;9.60;99.90
17632;DHT22;8934;51.194;17.150;2024-03-02T00:58:59;9.50;99.90
17632;DHT22;8934;51.194;17.150;2024-03-02T01:01:47;9.50;99.90
17632;DHT22;8934;51.194;17.150;2024-03-02T01:04:35;9.50;99.90
17632;DHT22;8934;51.194;17.150;2024-03-02T01:07:23;9.40;99.90
17632;DHT22;8934;51.194;17.150;2024-03-02T01:10:11;9.50;99.90
17632;DHT22;8934;51.194;17.150;2024-03-02T01:12:59;9.40;99.90
17632;DHT22;8934;51.194;17.150;2024-03-02T01:15:46;9.40;99.90
17632;DHT22;8934;51.194;17.150;2024-03-02T01:18:34;9.50;99.90
17632;DHT22;8934;51.194;17.150;2024-03-02T01:21:21;9.50;99.90
17632;DHT22;8934;51.194;17.150;2024-03-02T01:24:10;9.50;99.90
17632;DHT22;8934;51.194;17.150;2024-03-02T01:26:57;9.50;99.90
17632;DHT22;8934;51.194;17.150;2024-03-02T01:29:45;9.40;99.90
17632;DHT22;8934;51.194;17.150;2024-03-02T01:32:32;9.40;99.90
17632;DHT22;8934;51.194;17.150;2024-03-02T01:35:20;9.30;99.90
17632;DHT22;8934;51.194;17.150;2024-03-02T01:38:07;9.20;99.90
17632;DHT22;8934;51.194;17.150;2024-03-02T01:40:56;9.10;99.90
17632;DHT22;8934;51.194;17.150;2024-03-02T01:43:44;9.10;99.90
17632;DHT22;8934;51.194;17.150;2024-03-02T01:46:32;9.00;99.90
17632;DHT22;8934;51.194;17.150;2024-03-02T01:49:19;9.00;99.90
17632;DHT22;8934;51.194;17.150;2024-03-02T01:52:06;9.00;99.90
17632;DHT22;8934;51.194;17.150;2024-03-02T01:54:54;8.90;99.90
17632;DHT22;8934;51.194;17.150;2024-03-02T01:57:43;9.00;99.90
17632;DHT22;8934;51.194;17.150;2024-03-02T02:00:31;9.00;99.90
17632;DHT22;8934;51.194;17.150;2024-03-02T02:03:18;8.90;99.90
17632;DHT22;8934;51.194;17.150;2024-03-02T02:06:06;8.90;99.90
17632;DHT22;8934;51.194;17.150;2024-03-02T02:08:55;8.90;99.90
17632;DHT22;8934;51.194;17.150;2024-03-02T02:11:42;8.90;99.90
17632;DHT22;8934;51.194;17.150;2024-03-02T02:14:31;8.90;99.90
17632;DHT22;8934;51.194;17.150;2024-03-02T02:17:19;8.90;99.90
17632;DHT22;8934;51.194;17.150;2024-03-02T02:20:07;8.80;99.90
17632;DHT22;8934;51.194;17.150;2024-03-02T02:22:58;8.80;99.90
17632;DHT22;8934;51.194;17.150;2024-03-02T02:25:45;8.80;99.90
17632;DHT22;8934;51.194;17.150;2024-03-02T02:28:33;8.70;99.90
17632;DHT22;8934;51.194;17.150;2024-03-02T02:31:20;8.70;99.90
17632;DHT22;8934;51.194;17.150;2024-03-02T02:34:08;8.70;99.90
17632;DHT22;8934;51.194;17.150;2024-03-02T02:36:56;8.70;99.90
17632;DHT22;8934;51.194;17.150;2024-03-02T02:39:44;8.60;99.90
17632;DHT22;8934;51.194;17.150;2024-03-02T02:42:32;8.60;99.90
17632;DHT22;8934;51.194;17.150;2024-03-02T02:45:20;8.50;99.90
17632;DHT22;8934;51.194;17.150;2024-03-02T02:48:08;8.40;99.90
17632;DHT22;8934;51.194;17.150;2024-03-02T02:50:55;8.30;99.90
17632;DHT22;8934;51.194;17.150;2024-03-02T02:53:42;8.10;99.90
17632;DHT22;8934;51.194;17.150;2024-03-02T02:56:31;8.00;99.90
17632;DHT22;8934;51.194;17.150;2024-03-02T02:59:19;8.00;99.90
17632;DHT22;8934;51.194;17.150;2024-03-02T03:02:06;8.00;99.90
17632;DHT22;8934;51.194;17.150;2024-03-02T03:04:54;8.00;99.90
17632;DHT22;8934;51.194;17.150;2024-03-02T03:07:43;7.90;99.90
17632;DHT22;8934;51.194;17.150;2024-03-02T03:10:31;7.80;99.90
17632;DHT22;8934;51.194;17.150;2024-03-02T03:13:21;7.70;99.90
17632;DHT22;8934;51.194;17.150;2024-03-02T03:16:08;7.60;99.90
17632;DHT22;8934;51.194;17.150;2024-03-02T03:18:56;7.60;99.90
17632;DHT22;8934;51.194;17.150;2024-03-02T03:21:43;7.50;99.90
17632;DHT22;8934;51.194;17.150;2024-03-02T03:24:31;7.40;99.90
17632;DHT22;8934;51.194;17.150;2024-03-02T03:27:19;7.50;99.90
17632;DHT22;8934;51.194;17.150;2024-03-02T03:30:09;7.50;99.90
17632;DHT22;8934;51.194;17.150;2024-03-02T03:32:57;7.60;99.90
17632;DHT22;8934;51.194;17.150;2024-03-02T03:35:44;7.70;99.90
17632;DHT22;8934;51.194;17.150;2024-03-02T03:38:31;7.80;99.90
17632;DHT22;8934;51.194;17.150;2024-03-02T03:41:19;7.80;99.90
17632;DHT22;8934;51.194;17.150;2024-03-02T03:44:06;7.90;99.90
17632;DHT22;8934;51.194;17.150;2024-03-02T03:46:55;8.00;99.90
17632;DHT22;8934;51.194;17.150;2024-03-02T03:49:43;8.00;99.90
17632;DHT22;8934;51.194;17.150;2024-03-02T03:52:30;8.10;99.90
17632;DHT22;8934;51.194;17.150;2024-03-02T03:55:17;8.10;99.90
17632;DHT22;8934;51.194;17.150;2024-03-02T03:58:05;8.20;99.90
17632;DHT22;8934;51.194;17.150;2024-03-02T04:00:52;8.20;99.90
17632;DHT22;8934;51.194;17.150;2024-03-02T04:03:41;8.30;99.90
17632;DHT22;8934;51.194;17.150;2024-03-02T04:06:28;8.20;99.90
17632;DHT22;8934;51.194;17.150;2024-03-02T04:09:16;8.20;99.90
17632;DHT22;8934;51.194;17.150;2024-03-02T04:12:03;8.20;99.90
17632;DHT22;8934;51.194;17.150;2024-03-02T04:14:51;8.20;99.90
17632;DHT22;8934;51.194;17.150;2024-03-02T04:17:39;8.10;99.90
17632;DHT22;8934;51.194;17.150;2024-03-02T04:20:28;8.10;99.90
17632;DHT22;8934;51.194;17.150;2024-03-02T04:23:15;8.10;99.90
17632;DHT22;8934;51.194;17.150;2024-03-02T04:26:03;8.10;99.90
17632;DHT22;8934;51.194;17.150;2024-03-02T04:28:51;8.10;99.90
17632;DHT22;8934;51.194;17.150;2024-03-02T04:31:39;8.10;99.90
17632;DHT22;8934;51.194;17.150;2024-03-02T04:34:26;8.10;99.90
17632;DHT22;8934;51.194;17.150;2024-03-02T04:37:15;8.10;99.90
17632;DHT22;8934;51.194;17.150;2024-03-02T04:40:03;8.10;99.90
17632;DHT22;8934;51.194;17.150;2024-03-02T04:42:54;8.10;99.90
17632;DHT22;8934;51.194;17.150;2024-03-02T04:45:41;8.10;99.90
17632;DHT22;8934;51.194;17.150;2024-03-02T04:48:30;8.00;99.90
17632;DHT22;8934;51.194;17.150;2024-03-02T04:51:18;8.00;99.90
17632;DHT22;8934;51.194;17.150;2024-03-02T04:54:07;8.00;99.90
17632;DHT22;8934;51.194;17.150;2024-03-02T04:56:54;8.00;99.90
17632;DHT22;8934;51.194;17.150;2024-03-02T04:59:42;7.90;99.90
17632;DHT22;8934;51.194;17.150;2024-03-02T05:02:29;7.90;99.90
17632;DHT22;8934;51.194;17.150;2024-03-02T05:05:16;7.90;99.90
17632;DHT22;8934;51.194;17.150;2024-03-02T05:08:04;7.90;99.90
17632;DHT22;8934;51.194;17.150;2024-03-02T05:10:53;7.90;99.90
17632;DHT22;8934;51.194;17.150;2024-03-02T05:13:40;7.90;99.90
17632;DHT22;8934;51.194;17.150;2024-03-02T05:16:28;7.90;99.90
17632;DHT22;8934;51.194;17.150;2024-03-02T05:19:15;7.80;99.90
17632;DHT22;8934;51.194;17.150;2024-03-02T05:22:03;7.70;99.90
17632;DHT22;8934;51.194;17.150;2024-03-02T05:24:50;7.60;99.90
17632;DHT22;8934;51.194;17.150;2024-03-02T05:27:39;7.60;99.90
17632;DHT22;8934;51.194;17.150;2024-03-02T05:30:27;7.50;99.90
17632;DHT22;8934;51.194;17.150;2024-03-02T05:33:14;7.40;99.90
17632;DHT22;8934;51.194;17.150;2024-03-02T05:36:02;7.40;99.90
17632;DHT22;8934;51.194;17.150;2024-03-02T05:38:49;7.40;99.90
17632;DHT22;8934;51.194;17.150;2024-03-02T05:41:37;7.30;99.90
17632;DHT22;8934;51.194;17.150;2024-03-02T05:44:26;7.30;99.90
17632;DHT22;8934;51.194;17.150;2024-03-02T05:47:13;7.30;99.90
17632;DHT22;8934;51.194;17.150;2024-03-02T05:50:01;7.30;99.90
17632;DHT22;8934;51.194;17.150;2024-03-02T05:52:50;7.30;99.90
17632;DHT22;8934;51.194;17.150;2024-03-02T05:55:37;7.30;99.90
17632;DHT22;8934;51.194;17.150;2024-03-02T05:58:24;7.30;99.90
17632;DHT22;8934;51.194;17.150;2024-03-02T06:01:25;7.30;99.90
17632;DHT22;8934;51.194;17.150;2024-03-02T06:04:15;7.30;99.90
17632;DHT22;8934;51.194;17.150;2024-03-02T06:07:02;7.30;99.90
17632;DHT22;8934;51.194;17.150;2024-03-02T06:09:50;7.30;99.90
17632;DHT22;8934;51.194;17.150;2024-03-02T06:12:38;7.40;99.90
17632;DHT22;8934;51.194;17.150;2024-03-02T06:15:26;7.30;99.90
17632;DHT22;8934;51.194;17.150;2024-03-02T06:18:14;7.40;99.90
17632;DHT22;8934;51.194;17.150;2024-03-02T06:21:02;7.40;99.90
17632;DHT22;8934;51.194;17.150;2024-03-02T06:23:50;7.40;99.90
17632;DHT22;8934;51.194;17.150;2024-03-02T06:26:37;7.40;99.90
17632;DHT22;8934;51.194;17.150;2024-03-02T06:29:25;7.50;99.90
17632;DHT22;8934;51.194;17.150;2024-03-02T06:32:13;7.50;99.90
17632;DHT22;8934;51.194;17.150;2024-03-02T06:35:02;7.50;99.90
17632;DHT22;8934;51.194;17.150;2024-03-02T06:37:51;7.50;99.90
17632;DHT22;8934;51.194;17.150;2024-03-02T06:40:38;7.60;99.90
17632;DHT22;8934;51.194;17.150;2024-03-02T06:43:26;7.60;99.90
17632;DHT22;8934;51.194;17.150;2024-03-02T06:46:14;7.70;99.90
17632;DHT22;8934;51.194;17.150;2024-03-02T06:49:02;7.80;99.90
17632;DHT22;8934;51.194;17.150;2024-03-02T06:51:51;7.80;99.90
17632;DHT22;8934;51.194;17.150;2024-03-02T06:54:39;7.90;99.90
17632;DHT22;8934;51.194;17.150;2024-03-02T06:57:26;8.00;99.90
17632;DHT22;8934;51.194;17.150;2024-03-02T07:00:14;8.10;99.90
17632;DHT22;8934;51.194;17.150;2024-03-02T07:03:04;8.20;99.90
17632;DHT22;8934;51.194;17.150;2024-03-02T07:05:51;8.30;99.90
17632;DHT22;8934;51.194;17.150;2024-03-02T07:08:40;8.50;99.90
17632;DHT22;8934;51.194;17.150;2024-03-02T07:11:27;8.60;99.90
17632;DHT22;8934;51.194;17.150;2024-03-02T07:14:14;8.80;99.90
17632;DHT22;8934;51.194;17.150;2024-03-02T07:17:02;8.90;99.90
17632;DHT22;8934;51.194;17.150;2024-03-02T07:19:49;9.00;99.90
17632;DHT22;8934;51.194;17.150;2024-03-02T07:22:37;9.20;99.90
17632;DHT22;8934;51.194;17.150;2024-03-02T07:25:30;9.20;99.90
17632;DHT22;8934;51.194;17.150;2024-03-02T07:28:20;9.30;99.90
17632;DHT22;8934;51.194;17.150;2024-03-02T07:31:08;9.40;99.90
17632;DHT22;8934;51.194;17.150;2024-03-02T07:33:56;9.50;99.90
17632;DHT22;8934;51.194;17.150;2024-03-02T07:36:43;9.60;99.90
17632;DHT22;8934;51.194;17.150;2024-03-02T07:39:31;9.80;99.90
17632;DHT22;8934;51.194;17.150;2024-03-02T07:42:19;10.10;99.90
17632;DHT22;8934;51.194;17.150;2024-03-02T07:45:07;10.40;99.90
17632;DHT22;8934;51.194;17.150;2024-03-02T07:47:55;10.50;99.90
17632;DHT22;8934;51.194;17.150;2024-03-02T07:50:42;10.60;99.90
17632;DHT22;8934;51.194;17.150;2024-03-02T07:53:30;10.50;99.90
17632;DHT22;8934;51.194;17.150;2024-03-02T07:56:18;10.50;99.90
17632;DHT22;8934;51.194;17.150;2024-03-02T07:59:09;10.60;99.90
17632;DHT22;8934;51.194;17.150;2024-03-02T08:01:57;10.70;99.90
17632;DHT22;8934;51.194;17.150;2024-03-02T08:04:46;10.80;99.90
17632;DHT22;8934;51.194;17.150;2024-03-02T08:07:33;10.90;99.90
17632;DHT22;8934;51.194;17.150;2024-03-02T08:10:21;10.90;99.90
17632;DHT22;8934;51.194;17.150;2024-03-02T08:13:08;11.00;99.90
17632;DHT22;8934;51.194;17.150;2024-03-02T08:15:57;11.20;99.90
17632;DHT22;8934;51.194;17.150;2024-03-02T08:18:45;11.20;99.90
17632;DHT22;8934;51.194;17.150;2024-03-02T08:21:33;11.40;99.90
17632;DHT22;8934;51.194;17.150;2024-03-02T08:24:21;11.50;99.90
17632;DHT22;8934;51.194;17.150;2024-03-02T08:27:09;11.60;99.90
17632;DHT22;8934;51.194;17.150;2024-03-02T08:29:56;11.80;99.90
17632;DHT22;8934;51.194;17.150;2024-03-02T08:32:45;12.00;99.90
17632;DHT22;8934;51.194;17.150;2024-03-02T08:35:33;12.30;99.90
17632;DHT22;8934;51.194;17.150;2024-03-02T08:38:22;12.40;99.90
17632;DHT22;8934;51.194;17.150;2024-03-02T08:41:09;12.50;99.90
17632;DHT22;8934;51.194;17.150;2024-03-02T08:43:58;12.60;99.90
17632;DHT22;8934;51.194;17.150;2024-03-02T08:46:46;12.80;99.90
17632;DHT22;8934;51.194;17.150;2024-03-02T08:49:35;13.00;99.90
17632;DHT22;8934;51.194;17.150;2024-03-02T08:52:22;13.10;99.90
17632;DHT22;8934;51.194;17.150;2024-03-02T08:55:09;13.30;99.90
17632;DHT22;8934;51.194;17.150;2024-03-02T08:57:56;13.60;99.90
17632;DHT22;8934;51.194;17.150;2024-03-02T09:00:44;13.70;99.90
17632;DHT22;8934;51.194;17.150;2024-03-02T09:03:31;13.80;99.90
17632;DHT22;8934;51.194;17.150;2024-03-02T09:06:21;13.90;99.90
17632;DHT22;8934;51.194;17.150;2024-03-02T09:09:08;13.90;99.90
17632;DHT22;8934;51.194;17.150;2024-03-02T09:11:55;14.10;99.90
17632;DHT22;8934;51.194;17.150;2024-03-02T09:14:43;14.10;99.90
17632;DHT22;8934;51.194;17.150;2024-03-02T09:17:31;14.20;99.90
17632;DHT22;8934;51.194;17.150;2024-03-02T09:20:19;14.20;99.90
17632;DHT22;8934;51.194;17.150;2024-03-02T09:23:07;14.20;99.90
17632;DHT22;8934;51.194;17.150;2024-03-02T09:25:54;14.10;99.90
17632;DHT22;8934;51.194;17.150;2024-03-02T09:28:42;14.10;99.90
17632;DHT22;8934;51.194;17.150;2024-03-02T09:31:29;14.10;99.90
17632;DHT22;8934;51.194;17.150;2024-03-02T09:34:16;14.20;99.90
17632;DHT22;8934;51.194;17.150;2024-03-02T09:37:04;14.20;99.90
17632;DHT22;8934;51.194;17.150;2024-03-02T09:39:55;14.30;99.90
17632;DHT22;8934;51.194;17.150;2024-03-02T09:42:43;14.40;99.90
17632;DHT22;8934;51.194;17.150;2024-03-02T09:45:30;14.40;99.90
17632;DHT22;8934;51.194;17.150;2024-03-02T09:48:17;14.40;99.90
17632;DHT22;8934;51.194;17.150;2024-03-02T09:51:06;14.40;99.90
17632;DHT22;8934;51.194;17.150;2024-03-02T09:53:54;14.40;99.90
17632;DHT22;8934;51.194;17.150;2024-03-02T09:56:59;14.40;99.90
17632;DHT22;8934;51.194;17.150;2024-03-02T09:59:47;14.50;99.90
17632;DHT22;8934;51.194;17.150;2024-03-02T10:02:35;14.60;99.90
17632;DHT22;8934;51.194;17.150;2024-03-02T10:05:25;14.70;99.90
17632;DHT22;8934;51.194;17.150;2024-03-02T10:08:14;14.80;99.90
17632;DHT22;8934;51.194;17.150;2024-03-02T10:11:01;14.90;99.90
17632;DHT22;8934;51.194;17.150;2024-03-02T10:13:50;14.90;99.90
17632;DHT22;8934;51.194;17.150;2024-03-02T10:16:38;14.90;99.90
17632;DHT22;8934;51.194;17.150;2024-03-02T10:19:25;14.90;99.90
17632;DHT22;8934;51.194;17.150;2024-03-02T10:22:12;14.90;99.90
17632;DHT22;8934;51.194;17.150;2024-03-02T10:25:00;15.00;99.90
17632;DHT22;8934;51.194;17.150;2024-03-02T10:27:49;15.10;99.90
17632;DHT22;8934;51.194;17.150;2024-03-02T10:30:38;15.10;99.90
17632;DHT22;8934;51.194;17.150;2024-03-02T10:33:25;15.20;99.90
17632;DHT22;8934;51.194;17.150;2024-03-02T10:36:12;15.30;99.90
17632;DHT22;8934;51.194;17.150;2024-03-02T10:39:01;15.40;99.90
17632;DHT22;8934;51.194;17.150;2024-03-02T10:41:50;15.40;99.90
17632;DHT22;8934;51.194;17.150;2024-03-02T10:44:38;15.50;99.90
17632;DHT22;8934;51.194;17.150;2024-03-02T10:47:27;15.60;99.90
17632;DHT22;8934;51.194;17.150;2024-03-02T10:50:16;15.70;99.90
17632;DHT22;8934;51.194;17.150;2024-03-02T10:53:04;15.70;99.90
17632;DHT22;8934;51.194;17.150;2024-03-02T10:55:52;15.60;99.90
17632;DHT22;8934;51.194;17.150;2024-03-02T10:58:44;15.50;99.90
17632;DHT22;8934;51.194;17.150;2024-03-02T11:01:32;15.40;99.90
17632;DHT22;8934;51.194;17.150;2024-03-02T11:04:27;15.40;99.90
17632;DHT22;8934;51.194;17.150;2024-03-02T11:07:17;15.40;99.90
17632;DHT22;8934;51.194;17.150;2024-03-02T11:10:05;15.40;99.90
17632;DHT22;8934;51.194;17.150;2024-03-02T11:12:59;15.40;99.90
17632;DHT22;8934;51.194;17.150;2024-03-02T11:15:48;15.30;99.90
17632;DHT22;8934;51.194;17.150;2024-03-02T11:18:36;15.10;99.90
17632;DHT22;8934;51.194;17.150;2024-03-02T11:21:29;15.10;99.90
17632;DHT22;8934;51.194;17.150;2024-03-02T11:24:28;15.10;99.90
17632;DHT22;8934;51.194;17.150;2024-03-02T11:33:33;15.20;99.90
17632;DHT22;8934;51.194;17.150;2024-03-02T11:36:21;15.30;99.90
17632;DHT22;8934;51.194;17.150;2024-03-02T11:39:10;15.30;99.90
17632;DHT22;8934;51.194;17.150;2024-03-02T11:41:57;15.40;99.90
17632;DHT22;8934;51.194;17.150;2024-03-02T11:44:53;15.40;99.90
17632;DHT22;8934;51.194;17.150;2024-03-02T11:47:46;15.40;99.90
17632;DHT22;8934;51.194;17.150;2024-03-02T11:50:33;15.30;99.90
17632;DHT22;8934;51.194;17.150;2024-03-02T11:53:21;15.30;99.90
17632;DHT22;8934;51.194;17.150;2024-03-02T11:56:10;15.20;99.90
17632;DHT22;8934;51.194;17.150;2024-03-02T11:58:59;15.20;99.90
17632;DHT22;8934;51.194;17.150;2024-03-02T12:01:47;15.20;99.90
17632;DHT22;8934;51.194;17.150;2024-03-02T12:04:34;15.20;99.90
17632;DHT22;8934;51.194;17.150;2024-03-02T12:07:26;15.20;99.90
17632;DHT22;8934;51.194;17.150;2024-03-02T12:10:13;15.20;99.90
17632;DHT22;8934;51.194;17.150;2024-03-02T12:13:03;15.30;99.90
17632;DHT22;8934;51.194;17.150;2024-03-02T12:15:53;15.30;99.90
17632;DHT22;8934;51.194;17.150;2024-03-02T12:18:41;15.40;99.90
17632;DHT22;8934;51.194;17.150;2024-03-02T12:21:29;15.40;99.90
17632;DHT22;8934;51.194;17.150;2024-03-02T12:24:17;15.40;99.90
17632;DHT22;8934;51.194;17.150;2024-03-02T12:27:04;15.50;99.90
17632;DHT22;8934;51.194;17.150;2024-03-02T12:29:54;15.50;99.90
17632;DHT22;8934;51.194;17.150;2024-03-02T12:32:41;15.60;99.90
17632;DHT22;8934;51.194;17.150;2024-03-02T12:35:29;15.70;99.90
17632;DHT22;8934;51.194;17.150;2024-03-02T12:38:17;15.70;99.90
17632;DHT22;8934;51.194;17.150;2024-03-02T12:41:05;15.80;99.90
17632;DHT22;8934;51.194;17.150;2024-03-02T12:43:52;15.90;99.90
17632;DHT22;8934;51.194;17.150;2024-03-02T12:46:42;16.00;99.90
17632;DHT22;8934;51.194;17.150;2024-03-02T12:49:29;16.00;99.90
17632;DHT22;8934;51.194;17.150;2024-03-02T12:52:16;16.10;99.90
17632;DHT22;8934;51.194;17.150;2024-03-02T12:55:05;16.10;99.90
17632;DHT22;8934;51.194;17.150;2024-03-02T12:57:52;16.20;99.90
17632;DHT22;8934;51.194;17.150;2024-03-02T13:00:40;16.00;99.90
17632;DHT22;8934;51.194;17.150;2024-03-02T13:03:30;16.00;99.90
17632;DHT22;8934;51.194;17.150;2024-03-02T13:06:17;16.00;99.90
17632;DHT22;8934;51.194;17.150;2024-03-02T13:09:04;16.00;99.90
17632;DHT22;8934;51.194;17.150;2024-03-02T13:12:02;16.00;99.90
17632;DHT22;8934;51.194;17.150;2024-03-02T13:14:51;16.10;99.90
17632;DHT22;8934;51.194;17.150;2024-03-02T13:17:38;16.10;99.90
17632;DHT22;8934;51.194;17.150;2024-03-02T13:20:30;16.10;99.90
17632;DHT22;8934;51.194;17.150;2024-03-02T13:23:18;16.10;99.90
17632;DHT22;8934;51.194;17.150;2024-03-02T13:26:06;16.10;99.90
17632;DHT22;8934;51.194;17.150;2024-03-02T13:28:53;16.00;99.90
17632;DHT22;8934;51.194;17.150;2024-03-02T13:31:40;15.90;99.90
17632;DHT22;8934;51.194;17.150;2024-03-02T13:34:27;15.90;99.90
17632;DHT22;8934;51.194;17.150;2024-03-02T13:37:16;15.90;99.90
17632;DHT22;8934;51.194;17.150;2024-03-02T13:40:03;15.90;99.90
17632;DHT22;8934;51.194;17.150;2024-03-02T13:42:51;15.80;99.90
17632;DHT22;8934;51.194;17.150;2024-03-02T13:45:40;15.70;99.90
17632;DHT22;8934;51.194;17.150;2024-03-02T13:48:27;15.70;99.90
17632;DHT22;8934;51.194;17.150;2024-03-02T13:51:14;15.60;99.90
17632;DHT22;8934;51.194;17.150;2024-03-02T13:54:03;15.70;99.90
17632;DHT22;8934;51.194;17.150;2024-03-02T13:56:50;15.60;99.90
17632;DHT22;8934;51.194;17.150;2024-03-02T13:59:37;15.60;99.90
17632;DHT22;8934;51.194;17.150;2024-03-02T14:02:25;15.50;99.90
17632;DHT22;8934;51.194;17.150;2024-03-02T14:05:12;15.50;99.90
17632;DHT22;8934;51.194;17.150;2024-03-02T14:07:59;15.40;99.90
17632;DHT22;8934;51.194;17.150;2024-03-02T14:10:48;15.40;99.90
17632;DHT22;8934;51.194;17.150;2024-03-02T14:13:35;15.30;99.90
17632;DHT22;8934;51.194;17.150;2024-03-02T14:16:22;15.20;99.90
17632;DHT22;8934;51.194;17.150;2024-03-02T14:19:09;15.10;99.90
17632;DHT22;8934;51.194;17.150;2024-03-02T14:21:57;15.00;99.90
17632;DHT22;8934;51.194;17.150;2024-03-02T14:24:44;15.00;99.90
17632;DHT22;8934;51.194;17.150;2024-03-02T14:27:34;14.90;99.90
17632;DHT22;8934;51.194;17.150;2024-03-02T14:30:42;14.80;99.90
17632;DHT22;8934;51.194;17.150;2024-03-02T14:33:29;14.70;99.90
17632;DHT22;8934;51.194;17.150;2024-03-02T14:36:16;14.70;99.90
17632;DHT22;8934;51.194;17.150;2024-03-02T14:39:04;14.60;99.90
17632;DHT22;8934;51.194;17.150;2024-03-02T14:41:56;14.50;99.90
17632;DHT22;8934;51.194;17.150;2024-03-02T14:44:45;14.40;99.90
17632;DHT22;8934;51.194;17.150;2024-03-02T14:47:33;14.30;99.90
17632;DHT22;8934;51.194;17.150;2024-03-02T14:50:21;14.30;99.90
17632;DHT22;8934;51.194;17.150;2024-03-02T14:53:09;14.20;99.90
17632;DHT22;8934;51.194;17.150;2024-03-02T14:55:56;14.10;99.90
17632;DHT22;8934;51.194;17.150;2024-03-02T14:58:43;14.00;99.90
17632;DHT22;8934;51.194;17.150;2024-03-02T15:01:33;13.90;99.90
17632;DHT22;8934;51.194;17.150;2024-03-02T15:04:21;13.90;99.90
17632;DHT22;8934;51.194;17.150;2024-03-02T15:07:08;13.80;99.90
17632;DHT22;8934;51.194;17.150;2024-03-02T15:09:56;13.70;99.90
17632;DHT22;8934;51.194;17.150;2024-03-02T15:12:43;13.70;99.90
17632;DHT22;8934;51.194;17.150;2024-03-02T15:15:30;13.60;99.90
17632;DHT22;8934;51.194;17.150;2024-03-02T15:18:19;13.50;99.90
17632;DHT22;8934;51.194;17.150;2024-03-02T15:21:07;13.50;99.90
17632;DHT22;8934;51.194;17.150;2024-03-02T15:23:54;13.40;99.90
17632;DHT22;8934;51.194;17.150;2024-03-02T15:26:41;13.30;99.90
17632;DHT22;8934;51.194;17.150;2024-03-02T15:29:29;13.30;99.90
17632;DHT22;8934;51.194;17.150;2024-03-02T15:32:17;13.20;99.90
17632;DHT22;8934;51.194;17.150;2024-03-02T15:35:06;13.20;99.90
17632;DHT22;8934;51.194;17.150;2024-03-02T15:37:54;13.10;99.90
17632;DHT22;8934;51.194;17.150;2024-03-02T15:40:41;13.00;99.90
17632;DHT22;8934;51.194;17.150;2024-03-02T15:43:28;13.00;99.90
17632;DHT22;8934;51.194;17.150;2024-03-02T15:46:16;12.90;99.90
17632;DHT22;8934;51.194;17.150;2024-03-02T15:49:04;12.90;99.90
17632;DHT22;8934;51.194;17.150;2024-03-02T15:51:55;12.90;99.90
17632;DHT22;8934;51.194;17.150;2024-03-02T15:54:46;12.80;99.90
17632;DHT22;8934;51.194;17.150;2024-03-02T15:57:35;12.80;99.90
17632;DHT22;8934;51.194;17.150;2024-03-02T16:00:22;12.70;99.90
17632;DHT22;8934;51.194;17.150;2024-03-02T16:03:10;12.70;99.90
17632;DHT22;8934;51.194;17.150;2024-03-02T16:06:00;12.60;99.90
17632;DHT22;8934;51.194;17.150;2024-03-02T16:08:48;12.60;99.90
17632;DHT22;8934;51.194;17.150;2024-03-02T16:11:37;12.50;99.90
17632;DHT22;8934;51.194;17.150;2024-03-02T16:14:24;12.50;99.90
17632;DHT22;8934;51.194;17.150;2024-03-02T16:17:12;12.40;99.90
17632;DHT22;8934;51.194;17.150;2024-03-02T16:19:58;12.40;99.90
17632;DHT22;8934;51.194;17.150;2024-03-02T16:22:46;12.30;99.90
17632;DHT22;8934;51.194;17.150;2024-03-02T16:25:35;12.20;99.90
17632;DHT22;8934;51.194;17.150;2024-03-02T16:28:22;12.20;99.90
17632;DHT22;8934;51.194;17.150;2024-03-02T16:31:10;12.10;99.90
17632;DHT22;8934;51.194;17.150;2024-03-02T16:33:59;12.10;99.90
17632;DHT22;8934;51.194;17.150;2024-03-02T16:36:46;12.00;99.90
17632;DHT22;8934;51.194;17.150;2024-03-02T16:39:36;11.90;99.90
17632;DHT22;8934;51.194;17.150;2024-03-02T16:42:25;11.90;99.90
17632;DHT22;8934;51.194;17.150;2024-03-02T16:45:13;11.90;99.90
17632;DHT22;8934;51.194;17.150;2024-03-02T16:48:00;11.80;99.90
17632;DHT22;8934;51.194;17.150;2024-03-02T16:50:47;11.80;99.90
17632;DHT22;8934;51.194;17.150;2024-03-02T16:53:35;11.80;99.90
17632;DHT22;8934;51.194;17.150;2024-03-02T16:56:23;11.70;99.90
17632;DHT22;8934;51.194;17.150;2024-03-02T16:59:12;11.70;99.90
17632;DHT22;8934;51.194;17.150;2024-03-02T17:01:59;11.80;99.90
17632;DHT22;8934;51.194;17.150;2024-03-02T17:04:46;11.80;99.90
17632;DHT22;8934;51.194;17.150;2024-03-02T17:07:34;11.70;99.90
17632;DHT22;8934;51.194;17.150;2024-03-02T17:10:21;11.70;99.90
17632;DHT22;8934;51.194;17.150;2024-03-02T17:13:08;11.70;99.90
17632;DHT22;8934;51.194;17.150;2024-03-02T17:15:57;11.60;99.90
17632;DHT22;8934;51.194;17.150;2024-03-02T17:18:45;11.60;99.90
17632;DHT22;8934;51.194;17.150;2024-03-02T17:21:32;11.50;99.90
17632;DHT22;8934;51.194;17.150;2024-03-02T17:24:20;11.40;99.90
17632;DHT22;8934;51.194;17.150;2024-03-02T17:27:07;11.40;99.90
17632;DHT22;8934;51.194;17.150;2024-03-02T17:29:55;11.30;99.90
17632;DHT22;8934;51.194;17.150;2024-03-02T17:32:44;11.20;99.90
17632;DHT22;8934;51.194;17.150;2024-03-02T17:35:31;11.20;99.90
17632;DHT22;8934;51.194;17.150;2024-03-02T17:38:21;11.10;99.90
17632;DHT22;8934;51.194;17.150;2024-03-02T17:41:08;11.10;99.90
17632;DHT22;8934;51.194;17.150;2024-03-02T17:43:56;11.00;99.90
17632;DHT22;8934;51.194;17.150;2024-03-02T17:46:44;10.90;99.90
17632;DHT22;8934;51.194;17.150;2024-03-02T17:49:33;10.90;99.90
17632;DHT22;8934;51.194;17.150;2024-03-02T17:52:20;10.90;99.90
17632;DHT22;8934;51.194;17.150;2024-03-02T17:55:07;10.80;99.90
17632;DHT22;8934;51.194;17.150;2024-03-02T17:57:55;10.80;99.90